createdAt,value
2019-03-26T00:01:06.417Z,72.86
2019-03-26T00:03:34.876Z,73.00
2019-03-26T00:06:03.260Z,72.68
2019-03-26T00:08:31.639Z,72.65
2019-03-26T00:11:00.025Z,72.79
2019-03-26T00:13:28.412Z,72.79
2019-03-26T00:15:56.853Z,72.46
2019-03-26T00:18:25.232Z,72.34
2019-03-26T00:20:53.618Z,72.38
2019-03-26T00:23:22.000Z,72.38
2019-03-26T00:25:50.386Z,72.21
2019-03-26T00:28:18.766Z,72.08
2019-03-26T00:30:47.148Z,72.13
2019-03-26T00:33:15.525Z,72.14
2019-03-26T00:35:43.904Z,71.97
2019-03-26T00:38:12.282Z,72.09
2019-03-26T00:40:40.660Z,71.89
2019-03-26T00:43:09.040Z,71.83
2019-03-26T00:45:37.422Z,71.78
2019-03-26T00:48:05.807Z,71.81
2019-03-26T00:50:34.206Z,71.78
2019-03-26T00:53:02.591Z,71.81
2019-03-26T00:55:31.968Z,71.99
2019-03-26T00:58:01.807Z,71.87
2019-03-26T01:00:38.036Z,72.06
2019-03-26T01:03:06.837Z,72.13
2019-03-26T01:05:35.290Z,71.97
2019-03-26T01:08:03.849Z,71.97
2019-03-26T01:10:32.232Z,71.84
2019-03-26T01:13:00.684Z,72.03
2019-03-26T01:15:29.065Z,71.87
2019-03-26T01:17:57.461Z,71.97
2019-03-26T01:20:25.840Z,72.08
2019-03-26T01:22:54.231Z,72.04
2019-03-26T01:25:22.614Z,72.07
2019-03-26T01:27:50.988Z,71.90
2019-03-26T01:30:19.371Z,72.09
2019-03-26T01:32:47.748Z,72.33
2019-03-26T01:35:16.134Z,72.33
2019-03-26T01:37:44.514Z,72.21
2019-03-26T01:40:13.035Z,72.43
2019-03-26T01:42:41.419Z,72.46
2019-03-26T01:45:09.951Z,72.35
2019-03-26T01:47:38.331Z,72.54
2019-03-26T01:50:06.902Z,72.29
2019-03-26T01:52:35.287Z,72.58
2019-03-26T01:55:05.518Z,72.52
2019-03-26T01:57:33.929Z,72.66
2019-03-26T02:00:03.140Z,72.70
2019-03-26T02:02:31.522Z,72.51
2019-03-26T02:05:00.688Z,72.70
2019-03-26T02:07:29.275Z,72.69
2019-03-26T02:09:57.662Z,72.31
2019-03-26T02:12:26.049Z,72.40
2019-03-26T02:14:54.444Z,72.56
2019-03-26T02:17:22.901Z,72.80
2019-03-26T02:19:51.349Z,73.20
2019-03-26T02:22:19.737Z,73.22
2019-03-26T02:24:48.129Z,73.37
2019-03-26T02:27:16.676Z,72.99
2019-03-26T02:29:45.064Z,72.94
2019-03-26T02:32:13.448Z,72.65
2019-03-26T02:34:41.846Z,72.97
2019-03-26T02:37:11.347Z,73.05
2019-03-26T02:39:39.737Z,73.48
2019-03-26T02:42:08.137Z,73.22
2019-03-26T02:44:36.557Z,73.40
2019-03-26T02:47:04.933Z,73.71
2019-03-26T02:49:33.335Z,73.46
2019-03-26T02:52:01.829Z,73.73
2019-03-26T02:54:30.228Z,73.53
2019-03-26T02:56:58.600Z,73.71
2019-03-26T02:59:27.009Z,73.64
2019-03-26T03:01:55.456Z,73.79
2019-03-26T03:04:23.844Z,73.84
2019-03-26T03:06:52.243Z,73.86
2019-03-26T03:09:20.617Z,73.72
2019-03-26T03:11:49.011Z,73.90
2019-03-26T03:14:17.396Z,73.56
2019-03-26T03:16:45.773Z,73.83
2019-03-26T03:19:16.140Z,73.76
2019-03-26T03:21:44.280Z,73.65
2019-03-26T03:24:12.667Z,73.55
2019-03-26T03:26:41.048Z,73.33
2019-03-26T03:29:09.463Z,73.58
2019-03-26T03:31:37.825Z,73.59
2019-03-26T03:34:06.262Z,73.59
2019-03-26T03:36:34.681Z,73.46
2019-03-26T03:39:04.418Z,73.66
2019-03-26T03:41:32.797Z,73.21
2019-03-26T03:44:01.250Z,73.22
2019-03-26T03:46:29.902Z,73.24
2019-03-26T03:48:59.127Z,73.34
2019-03-26T03:51:29.857Z,73.11
2019-03-26T03:53:58.906Z,73.50
2019-03-26T03:56:28.812Z,73.37
2019-03-26T03:58:59.230Z,73.46
2019-03-26T04:01:27.618Z,73.43
2019-03-26T04:03:56.004Z,73.21
2019-03-26T04:06:24.482Z,73.29
2019-03-26T04:08:52.868Z,73.65
2019-03-26T04:11:21.254Z,73.72
2019-03-26T04:13:49.683Z,73.54
2019-03-26T04:16:18.071Z,73.52
2019-03-26T04:18:46.455Z,73.27
2019-03-26T04:21:14.853Z,73.49
2019-03-26T04:23:43.247Z,73.95
2019-03-26T04:26:11.640Z,73.67
2019-03-26T04:28:40.034Z,73.91
2019-03-26T04:31:08.424Z,73.65
2019-03-26T04:33:36.816Z,73.77
2019-03-26T04:36:05.216Z,73.70
2019-03-26T04:38:33.614Z,73.61
2019-03-26T04:41:01.994Z,73.53
2019-03-26T04:43:30.466Z,73.40
2019-03-26T04:45:58.854Z,73.42
2019-03-26T04:48:27.262Z,73.61
2019-03-26T04:50:55.696Z,73.48
2019-03-26T04:53:24.080Z,73.87
2019-03-26T04:55:52.475Z,73.65
2019-03-26T04:58:20.868Z,73.60
2019-03-26T05:00:49.265Z,73.70
2019-03-26T05:03:17.742Z,73.97
2019-03-26T05:05:46.121Z,74.00
2019-03-26T05:08:14.737Z,73.96
2019-03-26T05:10:43.174Z,74.09
2019-03-26T05:13:11.586Z,74.04
2019-03-26T05:15:39.959Z,74.30
2019-03-26T05:18:08.383Z,74.29
2019-03-26T05:20:36.821Z,74.55
2019-03-26T05:23:05.212Z,74.38
2019-03-26T05:25:33.601Z,74.24
2019-03-26T05:28:02.038Z,74.32
2019-03-26T05:30:33.012Z,74.26
2019-03-26T05:33:00.557Z,74.22
2019-03-26T05:35:28.995Z,74.13
2019-03-26T05:37:57.435Z,73.87
2019-03-26T05:40:25.775Z,73.82
2019-03-26T05:42:54.168Z,73.94
2019-03-26T05:45:22.576Z,74.31
2019-03-26T05:47:50.971Z,73.68
2019-03-26T05:50:19.370Z,73.75
2019-03-26T05:52:47.759Z,73.70
2019-03-26T05:55:16.192Z,73.63
2019-03-26T05:57:44.588Z,74.03
2019-03-26T06:00:15.859Z,74.13
2019-03-26T06:02:44.244Z,73.68
2019-03-26T06:05:12.655Z,73.44
2019-03-26T06:07:41.048Z,73.59
2019-03-26T06:10:11.453Z,72.83
2019-03-26T06:12:39.915Z,72.65
2019-03-26T06:15:09.264Z,72.48
2019-03-26T06:17:37.714Z,73.08
2019-03-26T06:20:08.339Z,72.82
2019-03-26T06:22:36.723Z,72.60
2019-03-26T06:25:08.266Z,72.64
2019-03-26T06:27:36.745Z,72.51
2019-03-26T06:30:07.515Z,72.45
2019-03-26T06:32:35.909Z,72.12
2019-03-26T06:35:06.549Z,72.17
2019-03-26T06:37:35.004Z,72.38
2019-03-26T06:40:04.397Z,72.17
2019-03-26T06:42:32.776Z,72.09
2019-03-26T06:45:01.165Z,71.96
2019-03-26T06:47:29.550Z,72.10
2019-03-26T06:49:58.839Z,71.95
2019-03-26T06:52:27.224Z,71.56
2019-03-26T06:54:55.641Z,71.91
2019-03-26T06:57:35.046Z,71.40
2019-03-26T06:59:54.263Z,71.27
2019-03-26T07:02:22.718Z,71.69
2019-03-26T07:04:51.112Z,71.21
2019-03-26T07:07:30.888Z,71.16
2019-03-26T07:09:49.659Z,71.10
2019-03-26T07:12:18.049Z,71.07
2019-03-26T07:14:46.445Z,70.97
2019-03-26T07:17:14.839Z,71.15
2019-03-26T07:19:43.238Z,70.62
2019-03-26T07:22:11.627Z,70.91
2019-03-26T07:24:40.024Z,70.76
2019-03-26T07:27:08.416Z,71.08
2019-03-26T07:29:36.882Z,70.13
2019-03-26T07:32:05.263Z,69.35
2019-03-26T07:34:33.660Z,69.90
2019-03-26T07:37:02.056Z,70.36
2019-03-26T07:39:30.451Z,69.91
2019-03-26T07:41:58.902Z,69.96
2019-03-26T07:44:27.291Z,69.94
2019-03-26T07:46:55.758Z,69.90
2019-03-26T07:49:24.148Z,70.02
2019-03-26T07:51:52.619Z,69.76
2019-03-26T07:54:21.000Z,69.57
2019-03-26T07:56:49.407Z,69.59
2019-03-26T07:59:17.792Z,68.76
2019-03-26T08:01:46.171Z,69.35
2019-03-26T08:04:14.570Z,69.82
2019-03-26T08:06:43.072Z,70.02
2019-03-26T08:09:11.524Z,69.58
2019-03-26T08:11:39.880Z,68.45
2019-03-26T08:14:08.276Z,68.62
2019-03-26T08:16:36.671Z,68.21
2019-03-26T08:19:05.139Z,68.12
2019-03-26T08:21:33.534Z,68.18
2019-03-26T08:24:01.995Z,68.58
2019-03-26T08:26:30.412Z,68.42
2019-03-26T08:29:00.956Z,68.17
2019-03-26T08:31:28.916Z,67.65
2019-03-26T08:33:57.319Z,67.96
2019-03-26T08:36:25.802Z,68.17
2019-03-26T08:38:54.205Z,67.83
2019-03-26T08:41:22.596Z,67.95
2019-03-26T08:43:50.987Z,67.67
2019-03-26T08:46:19.387Z,67.52
2019-03-26T08:48:47.777Z,67.22
2019-03-26T08:51:16.237Z,67.33
2019-03-26T08:53:44.909Z,66.09
2019-03-26T08:56:13.309Z,65.46
2019-03-26T08:58:41.720Z,65.57
2019-03-26T09:01:10.324Z,64.77
2019-03-26T09:03:38.712Z,64.61
2019-03-26T09:06:07.228Z,62.41
2019-03-26T09:08:35.612Z,63.23
2019-03-26T09:11:04.085Z,63.25
2019-03-26T09:13:32.484Z,63.06
2019-03-26T09:16:00.882Z,62.85
2019-03-26T09:18:29.356Z,62.51
2019-03-26T09:20:57.745Z,62.03
2019-03-26T09:23:26.169Z,62.01
2019-03-26T09:25:54.543Z,61.25
2019-03-26T09:28:22.959Z,61.01
2019-03-26T09:30:51.455Z,59.15
2019-03-26T09:33:19.845Z,60.13
2019-03-26T09:35:48.274Z,59.62
2019-03-26T09:38:16.638Z,59.11
2019-03-26T09:40:45.163Z,58.10
2019-03-26T09:43:13.628Z,55.77
2019-03-26T09:45:42.086Z,54.37
2019-03-26T09:48:10.474Z,51.47
2019-03-26T09:50:38.855Z,52.66
2019-03-26T09:53:07.235Z,48.46
2019-03-26T09:55:35.685Z,49.74
2019-03-26T09:58:05.396Z,49.83
2019-03-26T10:00:33.827Z,46.68
2019-03-26T10:03:02.401Z,46.90
2019-03-26T10:05:30.752Z,47.32
2019-03-26T10:07:59.144Z,44.68
2019-03-26T10:10:27.527Z,44.60
2019-03-26T10:12:55.919Z,44.71
2019-03-26T10:15:24.314Z,45.73
2019-03-26T10:17:52.714Z,44.67
2019-03-26T10:20:21.490Z,43.20
2019-03-26T10:22:49.935Z,44.67
2019-03-26T10:25:18.384Z,45.81
2019-03-26T10:27:48.987Z,45.25
2019-03-26T10:30:20.408Z,44.19
2019-03-26T10:32:48.922Z,44.12
2019-03-26T10:35:17.305Z,43.51
2019-03-26T10:37:45.709Z,43.18
2019-03-26T10:40:17.650Z,42.12
2019-03-26T10:42:46.329Z,41.26
2019-03-26T10:45:14.854Z,42.40
2019-03-26T10:47:43.719Z,43.37
2019-03-26T10:50:12.294Z,43.45
2019-03-26T10:52:40.633Z,45.00
2019-03-26T10:55:09.407Z,46.14
2019-03-26T10:57:38.784Z,45.81
2019-03-26T11:00:07.714Z,46.36
2019-03-26T11:02:36.092Z,46.91
2019-03-26T11:05:06.208Z,46.37
2019-03-26T11:07:34.632Z,46.28
2019-03-26T11:10:03.275Z,47.15
2019-03-26T11:12:31.680Z,46.80
2019-03-26T11:15:00.152Z,46.41
2019-03-26T11:17:28.744Z,47.16
2019-03-26T11:19:57.137Z,47.43
2019-03-26T11:22:26.502Z,47.75
2019-03-26T11:24:54.884Z,46.27
2019-03-26T11:27:23.271Z,47.05
2019-03-26T11:29:51.653Z,46.20
2019-03-26T11:32:20.179Z,46.54
2019-03-26T11:34:48.562Z,45.65
2019-03-26T11:37:17.003Z,45.34
2019-03-26T11:39:45.794Z,45.83
2019-03-26T11:42:14.254Z,45.74
2019-03-26T11:44:42.655Z,46.45
2019-03-26T11:47:11.099Z,46.21
2019-03-26T11:49:39.481Z,46.04
2019-03-26T11:52:08.833Z,45.07
2019-03-26T11:54:37.227Z,44.62
2019-03-26T11:57:05.671Z,44.24
2019-03-26T11:59:34.051Z,44.09
2019-03-26T12:02:02.440Z,42.67
2019-03-26T12:04:30.855Z,41.95
2019-03-26T12:06:59.232Z,42.10
2019-03-26T12:09:27.648Z,41.09
2019-03-26T12:11:56.592Z,41.62
2019-03-26T12:14:24.985Z,42.87
2019-03-26T12:16:53.408Z,42.91
2019-03-26T12:19:21.794Z,42.08
2019-03-26T12:21:50.179Z,42.23
2019-03-26T12:24:18.567Z,42.92
2019-03-26T12:26:47.022Z,42.54
2019-03-26T12:29:15.550Z,43.01
2019-03-26T12:31:44.758Z,43.39
2019-03-26T12:34:13.233Z,43.67
2019-03-26T12:36:41.686Z,43.67
2019-03-26T12:39:10.649Z,45.02
2019-03-26T12:41:39.127Z,44.73
2019-03-26T12:44:07.520Z,45.28
2019-03-26T12:46:35.914Z,45.80
2019-03-26T12:49:04.318Z,45.91
2019-03-26T12:51:32.702Z,46.24
2019-03-26T12:54:01.163Z,46.50
2019-03-26T12:56:29.697Z,46.98
2019-03-26T12:58:58.090Z,47.70
2019-03-26T13:01:27.396Z,48.13
2019-03-26T13:03:56.078Z,47.29
2019-03-26T13:06:25.596Z,47.60
2019-03-26T13:08:53.997Z,47.79
2019-03-26T13:11:22.517Z,47.01
2019-03-26T13:13:51.239Z,47.27
2019-03-26T13:16:19.731Z,47.35
2019-03-26T13:18:48.435Z,47.72
2019-03-26T13:21:16.817Z,46.54
2019-03-26T13:23:45.785Z,46.14
2019-03-26T13:26:15.446Z,45.77
2019-03-26T13:28:43.880Z,45.09
2019-03-26T13:31:12.281Z,45.69
2019-03-26T13:33:40.750Z,45.49
2019-03-26T13:36:09.144Z,45.95
2019-03-26T13:38:38.915Z,45.76
2019-03-26T13:41:07.366Z,45.00
2019-03-26T13:43:35.774Z,45.52
2019-03-26T13:46:04.273Z,46.11
2019-03-26T13:48:32.705Z,46.31
2019-03-26T13:51:01.088Z,46.92
2019-03-26T13:53:29.474Z,46.51
2019-03-26T13:55:57.863Z,46.63
2019-03-26T13:58:26.524Z,46.77
2019-03-26T14:00:55.084Z,47.00
2019-03-26T14:03:23.476Z,46.15
2019-03-26T14:05:51.939Z,46.40
2019-03-26T14:08:20.403Z,46.70
2019-03-26T14:10:48.814Z,46.19
2019-03-26T14:13:17.271Z,46.07
2019-03-26T14:15:45.671Z,46.12
2019-03-26T14:18:15.024Z,46.04
2019-03-26T14:20:43.488Z,45.17
2019-03-26T14:23:11.867Z,44.69
2019-03-26T14:25:40.277Z,44.95
2019-03-26T14:28:09.495Z,44.59
2019-03-26T14:30:42.387Z,44.98
2019-03-26T14:33:11.844Z,44.85
2019-03-26T14:35:41.202Z,43.44
2019-03-26T14:38:09.738Z,43.48
2019-03-26T14:40:38.348Z,43.90
2019-03-26T14:43:07.130Z,43.71
2019-03-26T14:45:35.611Z,43.42
2019-03-26T14:48:04.278Z,43.54
2019-03-26T14:50:32.703Z,43.68
2019-03-26T14:53:01.196Z,43.91
2019-03-26T14:55:29.690Z,42.47
2019-03-26T14:57:58.143Z,43.49
2019-03-26T15:00:27.854Z,44.02
2019-03-26T15:02:57.523Z,44.43
2019-03-26T15:05:26.219Z,44.70
2019-03-26T15:07:54.613Z,44.62
2019-03-26T15:10:23.557Z,44.35
2019-03-26T15:12:52.456Z,44.59
2019-03-26T15:15:20.835Z,44.33
2019-03-26T15:17:49.245Z,44.56
2019-03-26T15:20:17.748Z,44.65
2019-03-26T15:22:46.146Z,44.98
2019-03-26T15:25:14.535Z,45.07
2019-03-26T15:27:42.931Z,45.45
2019-03-26T15:30:13.226Z,45.86
2019-03-26T15:32:41.742Z,46.03
2019-03-26T15:35:10.990Z,45.74
2019-03-26T15:37:39.357Z,45.58
2019-03-26T15:40:08.972Z,45.40
2019-03-26T15:42:37.366Z,45.62
2019-03-26T15:45:07.285Z,45.39
2019-03-26T15:47:35.683Z,45.37
2019-03-26T15:50:06.047Z,45.51
2019-03-26T15:52:34.448Z,45.01
2019-03-26T15:55:02.902Z,45.03
2019-03-26T15:57:32.497Z,44.61
2019-03-26T16:00:00.858Z,44.52
2019-03-26T16:02:29.241Z,44.91
2019-03-26T16:04:57.620Z,45.14
2019-03-26T16:07:26.006Z,44.99
2019-03-26T16:09:54.390Z,44.80
2019-03-26T16:12:22.818Z,45.17
2019-03-26T16:14:51.212Z,45.30
2019-03-26T16:17:19.588Z,45.60
2019-03-26T16:19:47.962Z,44.74
2019-03-26T16:22:17.795Z,44.56
2019-03-26T16:24:46.398Z,44.23
2019-03-26T16:27:14.785Z,44.47
2019-03-26T16:29:43.246Z,44.56
2019-03-26T16:32:11.629Z,44.15
2019-03-26T16:34:40.074Z,44.51
2019-03-26T16:37:08.485Z,44.87
2019-03-26T16:39:36.863Z,43.65
2019-03-26T16:42:05.253Z,43.99
2019-03-26T16:44:33.644Z,43.26
2019-03-26T16:47:02.026Z,43.22
2019-03-26T16:49:30.413Z,43.75
2019-03-26T16:51:58.878Z,43.17
2019-03-26T16:54:27.256Z,43.20
2019-03-26T16:56:55.640Z,43.71
2019-03-26T16:59:24.022Z,43.72
2019-03-26T17:01:52.426Z,44.10
2019-03-26T17:04:27.590Z,44.78
2019-03-26T17:06:56.103Z,45.11
2019-03-26T17:09:24.499Z,45.36
2019-03-26T17:12:02.997Z,45.64
2019-03-26T17:14:23.103Z,46.08
2019-03-26T17:16:51.563Z,46.12
2019-03-26T17:19:19.983Z,46.48
2019-03-26T17:21:49.434Z,46.50
2019-03-26T17:24:17.917Z,46.45
2019-03-26T17:26:46.356Z,46.38
2019-03-26T17:29:14.841Z,46.56
2019-03-26T17:31:43.226Z,47.94
2019-03-26T17:34:11.687Z,46.23
2019-03-26T17:36:40.144Z,46.66
2019-03-26T17:39:09.275Z,46.04
2019-03-26T17:41:37.675Z,46.25
2019-03-26T17:44:06.147Z,46.44
2019-03-26T17:46:34.596Z,46.88
2019-03-26T17:49:02.988Z,46.86
2019-03-26T17:51:33.298Z,47.22
2019-03-26T17:54:04.458Z,47.32
2019-03-26T17:56:36.990Z,47.38
2019-03-26T17:59:05.426Z,47.48
2019-03-26T18:01:33.858Z,48.26
2019-03-26T18:04:02.386Z,48.75
2019-03-26T18:06:30.785Z,48.07
2019-03-26T18:08:59.181Z,48.35
2019-03-26T18:11:27.635Z,48.61
2019-03-26T18:13:56.016Z,48.67
2019-03-26T18:16:24.414Z,48.76
2019-03-26T18:18:55.032Z,48.53
2019-03-26T18:21:22.995Z,48.94
2019-03-26T18:23:51.380Z,49.01
2019-03-26T18:26:19.795Z,49.04
2019-03-26T18:28:48.140Z,49.30
2019-03-26T18:31:16.525Z,49.13
2019-03-26T18:33:44.910Z,49.46
2019-03-26T18:36:13.282Z,50.05
2019-03-26T18:38:41.665Z,50.06
2019-03-26T18:41:11.686Z,49.75
2019-03-26T18:43:40.113Z,49.77
2019-03-26T18:46:08.575Z,49.67
2019-03-26T18:48:36.997Z,49.64
2019-03-26T18:51:07.299Z,49.86
2019-03-26T18:53:35.683Z,50.84
2019-03-26T18:56:04.088Z,50.16
2019-03-26T18:58:32.463Z,50.43
2019-03-26T19:01:00.907Z,51.04
2019-03-26T19:03:29.400Z,50.57
2019-03-26T19:05:57.837Z,50.50
2019-03-26T19:08:27.276Z,51.00
2019-03-26T19:10:55.663Z,50.90
2019-03-26T19:13:24.068Z,50.68
2019-03-26T19:15:52.485Z,50.67
2019-03-26T19:18:20.888Z,50.74
2019-03-26T19:21:01.531Z,50.91
2019-03-26T19:23:22.275Z,50.92
2019-03-26T19:25:50.665Z,50.88
2019-03-26T19:28:19.078Z,50.92
2019-03-26T19:30:47.455Z,50.90
2019-03-26T19:33:15.864Z,51.21
2019-03-26T19:35:44.322Z,51.00
2019-03-26T19:38:12.709Z,51.24
2019-03-26T19:40:41.098Z,51.34
2019-03-26T19:43:11.135Z,51.65
2019-03-26T19:45:39.582Z,51.76
2019-03-26T19:48:09.943Z,51.59
2019-03-26T19:50:38.347Z,51.76
2019-03-26T19:53:07.793Z,51.77
2019-03-26T19:55:36.180Z,52.33
2019-03-26T19:58:04.672Z,52.02
2019-03-26T20:00:33.041Z,52.03
2019-03-26T20:03:01.418Z,52.38
2019-03-26T20:05:29.807Z,52.10
2019-03-26T20:07:58.211Z,52.56
2019-03-26T20:10:26.709Z,52.58
2019-03-26T20:12:55.133Z,52.50
2019-03-26T20:15:23.591Z,52.65
2019-03-26T20:17:52.057Z,52.57
2019-03-26T20:20:20.512Z,52.74
2019-03-26T20:22:48.899Z,52.60
2019-03-26T20:25:17.349Z,52.94
2019-03-26T20:27:45.804Z,52.60
2019-03-26T20:30:17.633Z,51.96
2019-03-26T20:32:46.039Z,52.18
2019-03-26T20:35:15.872Z,52.29
2019-03-26T20:37:44.262Z,52.38
2019-03-26T20:40:13.093Z,52.72
2019-03-26T20:42:42.462Z,52.75
2019-03-26T20:45:14.413Z,52.40
2019-03-26T20:47:44.043Z,52.51
2019-03-26T20:50:14.590Z,52.95
2019-03-26T20:52:43.967Z,52.80
2019-03-26T20:55:17.708Z,52.96
2019-03-26T20:57:46.448Z,52.94
2019-03-26T21:00:17.218Z,53.07
2019-03-26T21:02:45.611Z,52.97
2019-03-26T21:05:17.032Z,53.25
2019-03-26T21:07:47.804Z,53.27
2019-03-26T21:10:15.628Z,53.49
2019-03-26T21:12:44.024Z,53.34
2019-03-26T21:15:12.723Z,53.36
2019-03-26T21:17:41.111Z,53.65
2019-03-26T21:20:10.250Z,53.43
2019-03-26T21:22:38.624Z,53.68
2019-03-26T21:25:09.962Z,54.02
2019-03-26T21:27:39.570Z,54.05
2019-03-26T21:30:15.748Z,54.10
2019-03-26T21:32:44.404Z,54.52
2019-03-26T21:35:13.059Z,54.11
2019-03-26T21:37:41.456Z,54.28
2019-03-26T21:40:11.084Z,54.46
2019-03-26T21:42:39.477Z,54.41
2019-03-26T21:45:10.009Z,54.57
2019-03-26T21:47:39.336Z,54.59
2019-03-26T21:50:08.468Z,54.50
2019-03-26T21:52:36.853Z,54.27
2019-03-26T21:55:07.947Z,54.41
2019-03-26T21:57:43.301Z,54.45
2019-03-26T22:00:13.324Z,54.31
2019-03-26T22:02:41.717Z,54.70
2019-03-26T22:05:10.231Z,54.79
2019-03-26T22:07:39.577Z,54.54
2019-03-26T22:10:08.902Z,54.46
2019-03-26T22:12:37.298Z,54.64
2019-03-26T22:15:08.788Z,54.91
2019-03-26T22:17:37.314Z,55.21
2019-03-26T22:20:06.730Z,55.29
2019-03-26T22:22:36.170Z,55.67
2019-03-26T22:25:08.842Z,55.87
2019-03-26T22:27:37.342Z,56.22
2019-03-26T22:30:07.976Z,56.85
2019-03-26T22:32:36.372Z,58.12
2019-03-26T22:35:07.104Z,59.36
2019-03-26T22:37:39.503Z,59.07
2019-03-26T22:40:10.898Z,59.93
2019-03-26T22:42:39.361Z,60.24
2019-03-26T22:45:09.085Z,60.76
2019-03-26T22:47:39.211Z,60.93
2019-03-26T22:50:10.008Z,61.76
2019-03-26T22:52:38.464Z,62.38
2019-03-26T22:55:11.567Z,62.35
2019-03-26T22:57:39.962Z,62.82
2019-03-26T23:00:11.397Z,63.40
2019-03-26T23:02:39.782Z,64.98
2019-03-26T23:05:09.212Z,64.81
2019-03-26T23:07:37.601Z,65.60
2019-03-26T23:10:07.524Z,65.65
2019-03-26T23:12:35.913Z,65.79
2019-03-26T23:15:14.496Z,66.36
2019-03-26T23:17:42.947Z,66.50
2019-03-26T23:20:11.334Z,66.22
2019-03-26T23:22:39.738Z,66.76
2019-03-26T23:25:08.202Z,67.35
2019-03-26T23:27:36.588Z,67.15
2019-03-26T23:30:09.964Z,67.44
2019-03-26T23:32:38.415Z,67.53
2019-03-26T23:35:07.236Z,67.32
2019-03-26T23:37:35.630Z,67.76
2019-03-26T23:40:04.763Z,67.57
2019-03-26T23:42:33.148Z,67.79
2019-03-26T23:45:01.615Z,67.91
2019-03-26T23:47:30.023Z,68.37
2019-03-26T23:49:58.432Z,68.43
2019-03-26T23:52:26.814Z,68.39
2019-03-26T23:54:55.203Z,68.52
2019-03-26T23:57:23.595Z,68.28
2019-03-26T23:59:51.990Z,68.44
